sensor_id;sensor_type;location;lat;lon;timestamp;P1;durP1;ratioP1;P2;durP2;ratioP2
10957;SDS011;5531;42.570;23.676;2023-05-14T00:01:59;2.20;;;2.00;;
10957;SDS011;5531;42.570;23.676;2023-05-14T00:04:28;2.42;;;1.73;;
10957;SDS011;5531;42.570;23.676;2023-05-14T00:06:56;3.03;;;2.15;;
10957;SDS011;5531;42.570;23.676;2023-05-14T00:09:26;3.25;;;2.10;;
10957;SDS011;5531;42.570;23.676;2023-05-14T00:11:57;2.72;;;2.20;;
10957;SDS011;5531;42.570;23.676;2023-05-14T00:14:25;3.70;;;1.90;;
10957;SDS011;5531;42.570;23.676;2023-05-14T00:16:54;2.65;;;1.90;;
10957;SDS011;5531;42.570;23.676;2023-05-14T00:19:23;2.00;;;1.80;;
10957;SDS011;5531;42.570;23.676;2023-05-14T00:21:52;2.13;;;1.88;;
10957;SDS011;5531;42.570;23.676;2023-05-14T00:24:21;2.90;;;1.70;;
10957;SDS011;5531;42.570;23.676;2023-05-14T00:26:49;4.95;;;2.20;;
10957;SDS011;5531;42.570;23.676;2023-05-14T00:29:20;1.92;;;1.60;;
10957;SDS011;5531;42.570;23.676;2023-05-14T00:31:49;2.22;;;1.77;;
10957;SDS011;5531;42.570;23.676;2023-05-14T00:34:17;2.13;;;1.77;;
10957;SDS011;5531;42.570;23.676;2023-05-14T00:36:46;2.67;;;1.85;;
10957;SDS011;5531;42.570;23.676;2023-05-14T00:39:15;1.98;;;1.83;;
10957;SDS011;5531;42.570;23.676;2023-05-14T00:41:43;1.90;;;1.52;;
10957;SDS011;5531;42.570;23.676;2023-05-14T00:44:12;2.30;;;1.63;;
10957;SDS011;5531;42.570;23.676;2023-05-14T00:46:43;2.08;;;1.73;;
10957;SDS011;5531;42.570;23.676;2023-05-14T00:49:11;1.92;;;1.67;;
10957;SDS011;5531;42.570;23.676;2023-05-14T00:51:40;2.10;;;1.90;;
10957;SDS011;5531;42.570;23.676;2023-05-14T00:54:11;1.90;;;1.80;;
10957;SDS011;5531;42.570;23.676;2023-05-14T00:56:40;2.67;;;2.00;;
10957;SDS011;5531;42.570;23.676;2023-05-14T00:59:08;2.30;;;2.10;;
10957;SDS011;5531;42.570;23.676;2023-05-14T01:01:37;2.00;;;1.67;;
10957;SDS011;5531;42.570;23.676;2023-05-14T01:04:08;2.47;;;1.70;;
10957;SDS011;5531;42.570;23.676;2023-05-14T01:06:39;1.83;;;1.70;;
10957;SDS011;5531;42.570;23.676;2023-05-14T01:09:12;2.10;;;1.85;;
10957;SDS011;5531;42.570;23.676;2023-05-14T01:11:46;2.10;;;1.90;;
10957;SDS011;5531;42.570;23.676;2023-05-14T01:14:18;2.67;;;1.70;;
10957;SDS011;5531;42.570;23.676;2023-05-14T01:16:48;2.78;;;1.88;;
10957;SDS011;5531;42.570;23.676;2023-05-14T01:19:26;2.55;;;2.15;;
10957;SDS011;5531;42.570;23.676;2023-05-14T01:21:59;2.95;;;2.03;;
10957;SDS011;5531;42.570;23.676;2023-05-14T01:24:28;1.98;;;1.77;;
10957;SDS011;5531;42.570;23.676;2023-05-14T01:26:57;2.55;;;1.92;;
10957;SDS011;5531;42.570;23.676;2023-05-14T01:29:28;2.10;;;1.90;;
10957;SDS011;5531;42.570;23.676;2023-05-14T01:31:58;2.13;;;1.80;;
10957;SDS011;5531;42.570;23.676;2023-05-14T01:34:27;2.10;;;1.90;;
10957;SDS011;5531;42.570;23.676;2023-05-14T01:37:00;2.40;;;2.20;;
10957;SDS011;5531;42.570;23.676;2023-05-14T01:39:29;2.00;;;1.80;;
10957;SDS011;5531;42.570;23.676;2023-05-14T01:41:58;2.55;;;1.80;;
10957;SDS011;5531;42.570;23.676;2023-05-14T01:44:28;2.20;;;1.80;;
10957;SDS011;5531;42.570;23.676;2023-05-14T01:46:57;3.22;;;2.00;;
10957;SDS011;5531;42.570;23.676;2023-05-14T01:49:25;1.80;;;1.70;;
10957;SDS011;5531;42.570;23.676;2023-05-14T01:51:54;2.22;;;2.03;;
10957;SDS011;5531;42.570;23.676;2023-05-14T01:54:25;2.10;;;1.90;;
10957;SDS011;5531;42.570;23.676;2023-05-14T01:56:54;2.25;;;2.05;;
10957;SDS011;5531;42.570;23.676;2023-05-14T01:59:22;2.45;;;2.00;;
10957;SDS011;5531;42.570;23.676;2023-05-14T02:01:51;2.03;;;1.83;;
10957;SDS011;5531;42.570;23.676;2023-05-14T02:04:19;2.30;;;1.80;;
10957;SDS011;5531;42.570;23.676;2023-05-14T02:06:48;2.72;;;1.90;;
10957;SDS011;5531;42.570;23.676;2023-05-14T02:09:16;2.47;;;1.70;;
10957;SDS011;5531;42.570;23.676;2023-05-14T02:11:47;2.20;;;2.00;;
10957;SDS011;5531;42.570;23.676;2023-05-14T02:14:16;1.98;;;1.83;;
10957;SDS011;5531;42.570;23.676;2023-05-14T02:16:45;2.25;;;2.05;;
10957;SDS011;5531;42.570;23.676;2023-05-14T02:19:13;3.67;;;2.40;;
10957;SDS011;5531;42.570;23.676;2023-05-14T02:21:42;2.22;;;1.92;;
10957;SDS011;5531;42.570;23.676;2023-05-14T02:24:10;2.35;;;2.15;;
10957;SDS011;5531;42.570;23.676;2023-05-14T02:26:38;2.40;;;2.13;;
10957;SDS011;5531;42.570;23.676;2023-05-14T02:29:10;2.30;;;2.10;;
10957;SDS011;5531;42.570;23.676;2023-05-14T02:31:38;2.72;;;2.28;;
10957;SDS011;5531;42.570;23.676;2023-05-14T02:34:08;3.00;;;2.08;;
10957;SDS011;5531;42.570;23.676;2023-05-14T02:36:37;3.55;;;1.92;;
10957;SDS011;5531;42.570;23.676;2023-05-14T02:39:06;3.35;;;2.47;;
10957;SDS011;5531;42.570;23.676;2023-05-14T02:41:34;2.30;;;2.05;;
10957;SDS011;5531;42.570;23.676;2023-05-14T02:44:03;3.80;;;2.38;;
10957;SDS011;5531;42.570;23.676;2023-05-14T02:46:34;4.07;;;2.50;;
10957;SDS011;5531;42.570;23.676;2023-05-14T02:49:03;2.80;;;2.50;;
10957;SDS011;5531;42.570;23.676;2023-05-14T02:51:31;2.50;;;2.30;;
10957;SDS011;5531;42.570;23.676;2023-05-14T02:54:00;3.58;;;2.30;;
10957;SDS011;5531;42.570;23.676;2023-05-14T02:56:28;2.53;;;2.20;;
10957;SDS011;5531;42.570;23.676;2023-05-14T02:58:57;3.67;;;2.75;;
10957;SDS011;5531;42.570;23.676;2023-05-14T03:01:25;4.80;;;2.30;;
10957;SDS011;5531;42.570;23.676;2023-05-14T03:03:56;2.28;;;2.08;;
10957;SDS011;5531;42.570;23.676;2023-05-14T03:06:25;2.50;;;2.30;;
10957;SDS011;5531;42.570;23.676;2023-05-14T03:08:54;3.08;;;2.03;;
10957;SDS011;5531;42.570;23.676;2023-05-14T03:11:22;2.75;;;2.20;;
10957;SDS011;5531;42.570;23.676;2023-05-14T03:13:51;3.42;;;2.30;;
10957;SDS011;5531;42.570;23.676;2023-05-14T03:16:19;2.17;;;1.90;;
10957;SDS011;5531;42.570;23.676;2023-05-14T03:18:48;2.60;;;2.20;;
10957;SDS011;5531;42.570;23.676;2023-05-14T03:21:19;2.40;;;2.20;;
10957;SDS011;5531;42.570;23.676;2023-05-14T03:23:47;2.55;;;2.30;;
10957;SDS011;5531;42.570;23.676;2023-05-14T03:26:16;2.38;;;2.10;;
10957;SDS011;5531;42.570;23.676;2023-05-14T03:28:45;2.88;;;2.42;;
10957;SDS011;5531;42.570;23.676;2023-05-14T03:31:14;2.75;;;2.50;;
10957;SDS011;5531;42.570;23.676;2023-05-14T03:33:42;2.67;;;2.28;;
10957;SDS011;5531;42.570;23.676;2023-05-14T03:36:11;3.47;;;2.15;;
10957;SDS011;5531;42.570;23.676;2023-05-14T03:38:42;3.60;;;2.22;;
10957;SDS011;5531;42.570;23.676;2023-05-14T03:41:11;2.78;;;2.45;;
10957;SDS011;5531;42.570;23.676;2023-05-14T03:43:39;3.33;;;2.80;;
10957;SDS011;5531;42.570;23.676;2023-05-14T03:46:08;3.08;;;2.78;;
10957;SDS011;5531;42.570;23.676;2023-05-14T03:48:36;2.72;;;2.42;;
10957;SDS011;5531;42.570;23.676;2023-05-14T03:51:05;3.28;;;2.80;;
10957;SDS011;5531;42.570;23.676;2023-05-14T03:53:33;3.10;;;2.60;;
10957;SDS011;5531;42.570;23.676;2023-05-14T03:56:05;4.32;;;3.10;;
10957;SDS011;5531;42.570;23.676;2023-05-14T03:58:34;3.60;;;2.70;;
10957;SDS011;5531;42.570;23.676;2023-05-14T04:01:02;3.30;;;2.58;;
10957;SDS011;5531;42.570;23.676;2023-05-14T04:03:31;4.32;;;2.85;;
10957;SDS011;5531;42.570;23.676;2023-05-14T04:06:00;3.50;;;3.20;;
10957;SDS011;5531;42.570;23.676;2023-05-14T04:08:28;3.20;;;2.90;;
10957;SDS011;5531;42.570;23.676;2023-05-14T04:10:57;3.42;;;2.90;;
10957;SDS011;5531;42.570;23.676;2023-05-14T04:13:28;5.65;;;3.22;;
10957;SDS011;5531;42.570;23.676;2023-05-14T04:15:57;3.00;;;2.70;;
10957;SDS011;5531;42.570;23.676;2023-05-14T04:18:25;3.95;;;2.70;;
10957;SDS011;5531;42.570;23.676;2023-05-14T04:20:54;3.40;;;2.80;;
10957;SDS011;5531;42.570;23.676;2023-05-14T04:23:22;4.32;;;2.85;;
10957;SDS011;5531;42.570;23.676;2023-05-14T04:25:51;3.03;;;2.80;;
10957;SDS011;5531;42.570;23.676;2023-05-14T04:28:19;3.25;;;2.85;;
10957;SDS011;5531;42.570;23.676;2023-05-14T04:30:51;3.45;;;2.75;;
10957;SDS011;5531;42.570;23.676;2023-05-14T04:33:19;3.92;;;3.10;;
10957;SDS011;5531;42.570;23.676;2023-05-14T04:35:48;3.05;;;2.60;;
10957;SDS011;5531;42.570;23.676;2023-05-14T04:38:16;3.55;;;2.50;;
10957;SDS011;5531;42.570;23.676;2023-05-14T04:40:45;5.00;;;2.80;;
10957;SDS011;5531;42.570;23.676;2023-05-14T04:43:14;3.70;;;2.63;;
10957;SDS011;5531;42.570;23.676;2023-05-14T04:45:42;3.22;;;2.90;;
10957;SDS011;5531;42.570;23.676;2023-05-14T04:48:13;3.95;;;2.70;;
10957;SDS011;5531;42.570;23.676;2023-05-14T04:50:42;3.70;;;2.90;;
10957;SDS011;5531;42.570;23.676;2023-05-14T04:53:11;3.00;;;2.70;;
10957;SDS011;5531;42.570;23.676;2023-05-14T04:55:39;4.85;;;2.75;;
10957;SDS011;5531;42.570;23.676;2023-05-14T04:58:08;4.10;;;2.70;;
10957;SDS011;5531;42.570;23.676;2023-05-14T05:00:37;3.25;;;2.70;;
10957;SDS011;5531;42.570;23.676;2023-05-14T05:03:05;3.45;;;2.55;;
10957;SDS011;5531;42.570;23.676;2023-05-14T05:05:37;2.92;;;2.42;;
10957;SDS011;5531;42.570;23.676;2023-05-14T05:08:05;3.85;;;3.08;;
10957;SDS011;5531;42.570;23.676;2023-05-14T05:10:35;4.00;;;2.83;;
10957;SDS011;5531;42.570;23.676;2023-05-14T05:13:04;2.83;;;2.58;;
10957;SDS011;5531;42.570;23.676;2023-05-14T05:15:32;4.35;;;2.78;;
10957;SDS011;5531;42.570;23.676;2023-05-14T05:18:01;4.07;;;2.90;;
10957;SDS011;5531;42.570;23.676;2023-05-14T05:20:30;5.35;;;3.13;;
10957;SDS011;5531;42.570;23.676;2023-05-14T05:23:02;3.30;;;3.00;;
10957;SDS011;5531;42.570;23.676;2023-05-14T05:25:30;3.60;;;2.90;;
10957;SDS011;5531;42.570;23.676;2023-05-14T05:27:59;3.40;;;2.83;;
10957;SDS011;5531;42.570;23.676;2023-05-14T05:30:28;4.15;;;3.13;;
10957;SDS011;5531;42.570;23.676;2023-05-14T05:32:57;4.80;;;3.42;;
10957;SDS011;5531;42.570;23.676;2023-05-14T05:35:25;4.85;;;3.58;;
10957;SDS011;5531;42.570;23.676;2023-05-14T05:37:54;4.15;;;3.45;;
10957;SDS011;5531;42.570;23.676;2023-05-14T05:40:25;4.15;;;3.20;;
10957;SDS011;5531;42.570;23.676;2023-05-14T05:42:54;5.82;;;3.55;;
10957;SDS011;5531;42.570;23.676;2023-05-14T05:45:22;4.68;;;3.38;;
10957;SDS011;5531;42.570;23.676;2023-05-14T05:47:51;3.97;;;3.38;;
10957;SDS011;5531;42.570;23.676;2023-05-14T05:50:19;3.90;;;3.50;;
10957;SDS011;5531;42.570;23.676;2023-05-14T05:52:48;4.25;;;3.40;;
10957;SDS011;5531;42.570;23.676;2023-05-14T05:55:16;3.67;;;3.28;;
10957;SDS011;5531;42.570;23.676;2023-05-14T05:57:48;3.95;;;3.65;;
10957;SDS011;5531;42.570;23.676;2023-05-14T06:00:17;3.72;;;3.40;;
10957;SDS011;5531;42.570;23.676;2023-05-14T06:02:45;3.95;;;3.55;;
10957;SDS011;5531;42.570;23.676;2023-05-14T06:05:14;4.28;;;3.88;;
10957;SDS011;5531;42.570;23.676;2023-05-14T06:07:43;6.22;;;3.40;;
10957;SDS011;5531;42.570;23.676;2023-05-14T06:10:12;4.88;;;3.70;;
10957;SDS011;5531;42.570;23.676;2023-05-14T06:12:40;4.82;;;3.70;;
10957;SDS011;5531;42.570;23.676;2023-05-14T06:15:12;6.93;;;3.72;;
10957;SDS011;5531;42.570;23.676;2023-05-14T06:17:40;4.03;;;3.63;;
10957;SDS011;5531;42.570;23.676;2023-05-14T06:20:09;4.07;;;3.67;;
10957;SDS011;5531;42.570;23.676;2023-05-14T06:22:38;4.10;;;3.50;;
10957;SDS011;5531;42.570;23.676;2023-05-14T06:25:07;5.55;;;3.92;;
10957;SDS011;5531;42.570;23.676;2023-05-14T06:27:36;4.47;;;4.00;;
10957;SDS011;5531;42.570;23.676;2023-05-14T06:30:05;4.70;;;3.70;;
10957;SDS011;5531;42.570;23.676;2023-05-14T06:32:38;5.10;;;3.75;;
10957;SDS011;5531;42.570;23.676;2023-05-14T06:35:07;6.10;;;4.05;;
10957;SDS011;5531;42.570;23.676;2023-05-14T06:37:35;7.10;;;4.40;;
10957;SDS011;5531;42.570;23.676;2023-05-14T06:40:04;4.65;;;4.15;;
10957;SDS011;5531;42.570;23.676;2023-05-14T06:42:33;5.22;;;4.40;;
10957;SDS011;5531;42.570;23.676;2023-05-14T06:45:02;5.88;;;4.68;;
10957;SDS011;5531;42.570;23.676;2023-05-14T06:47:30;5.65;;;4.43;;
10957;SDS011;5531;42.570;23.676;2023-05-14T06:50:02;7.13;;;5.10;;
10957;SDS011;5531;42.570;23.676;2023-05-14T06:52:31;5.40;;;4.85;;
10957;SDS011;5531;42.570;23.676;2023-05-14T06:54:59;5.10;;;4.60;;
10957;SDS011;5531;42.570;23.676;2023-05-14T06:57:28;6.03;;;4.75;;
10957;SDS011;5531;42.570;23.676;2023-05-14T06:59:58;7.13;;;5.15;;
10957;SDS011;5531;42.570;23.676;2023-05-14T07:02:26;5.88;;;4.60;;
10957;SDS011;5531;42.570;23.676;2023-05-14T07:04:56;5.97;;;4.82;;
10957;SDS011;5531;42.570;23.676;2023-05-14T07:07:27;5.47;;;4.90;;
10957;SDS011;5531;42.570;23.676;2023-05-14T07:09:56;7.57;;;4.85;;
10957;SDS011;5531;42.570;23.676;2023-05-14T07:12:24;6.80;;;5.10;;
10957;SDS011;5531;42.570;23.676;2023-05-14T07:14:53;5.60;;;5.00;;
10957;SDS011;5531;42.570;23.676;2023-05-14T07:17:22;6.35;;;5.00;;
10957;SDS011;5531;42.570;23.676;2023-05-14T07:19:50;6.15;;;5.00;;
10957;SDS011;5531;42.570;23.676;2023-05-14T07:22:19;6.43;;;5.30;;
10957;SDS011;5531;42.570;23.676;2023-05-14T07:24:51;5.97;;;5.30;;
10957;SDS011;5531;42.570;23.676;2023-05-14T07:27:19;4.78;;;4.30;;
10957;SDS011;5531;42.570;23.676;2023-05-14T07:29:48;6.78;;;4.93;;
10957;SDS011;5531;42.570;23.676;2023-05-14T07:32:17;8.52;;;6.20;;
10957;SDS011;5531;42.570;23.676;2023-05-14T07:34:45;5.88;;;4.90;;
10957;SDS011;5531;42.570;23.676;2023-05-14T07:37:14;6.10;;;5.30;;
10957;SDS011;5531;42.570;23.676;2023-05-14T07:39:42;6.25;;;5.10;;
10957;SDS011;5531;42.570;23.676;2023-05-14T07:42:13;6.03;;;4.72;;
10957;SDS011;5531;42.570;23.676;2023-05-14T07:44:42;5.82;;;4.85;;
10957;SDS011;5531;42.570;23.676;2023-05-14T07:47:11;6.30;;;4.90;;
10957;SDS011;5531;42.570;23.676;2023-05-14T07:49:39;5.47;;;4.80;;
10957;SDS011;5531;42.570;23.676;2023-05-14T07:52:08;9.77;;;8.88;;
10957;SDS011;5531;42.570;23.676;2023-05-14T07:54:36;7.30;;;4.95;;
10957;SDS011;5531;42.570;23.676;2023-05-14T07:57:05;5.20;;;4.50;;
10957;SDS011;5531;42.570;23.676;2023-05-14T07:59:36;6.63;;;5.28;;
10957;SDS011;5531;42.570;23.676;2023-05-14T08:02:05;6.00;;;5.00;;
10957;SDS011;5531;42.570;23.676;2023-05-14T08:04:34;6.50;;;5.45;;
10957;SDS011;5531;42.570;23.676;2023-05-14T08:07:03;6.60;;;5.50;;
10957;SDS011;5531;42.570;23.676;2023-05-14T08:09:32;8.02;;;4.93;;
10957;SDS011;5531;42.570;23.676;2023-05-14T08:12:01;6.95;;;5.75;;
10957;SDS011;5531;42.570;23.676;2023-05-14T08:14:30;6.43;;;5.50;;
10957;SDS011;5531;42.570;23.676;2023-05-14T08:17:01;6.18;;;5.57;;
10957;SDS011;5531;42.570;23.676;2023-05-14T08:19:30;6.68;;;5.63;;
10957;SDS011;5531;42.570;23.676;2023-05-14T08:21:59;6.88;;;5.85;;
10957;SDS011;5531;42.570;23.676;2023-05-14T08:24:27;8.32;;;6.18;;
10957;SDS011;5531;42.570;23.676;2023-05-14T08:26:56;7.00;;;5.97;;
10957;SDS011;5531;42.570;23.676;2023-05-14T08:29:25;9.38;;;6.28;;
10957;SDS011;5531;42.570;23.676;2023-05-14T08:31:53;7.40;;;6.10;;
10957;SDS011;5531;42.570;23.676;2023-05-14T08:34:25;6.88;;;5.97;;
10957;SDS011;5531;42.570;23.676;2023-05-14T08:36:54;7.55;;;5.72;;
10957;SDS011;5531;42.570;23.676;2023-05-14T08:39:23;7.35;;;5.90;;
10957;SDS011;5531;42.570;23.676;2023-05-14T08:41:51;7.45;;;6.30;;
10957;SDS011;5531;42.570;23.676;2023-05-14T08:44:22;9.20;;;6.30;;
10957;SDS011;5531;42.570;23.676;2023-05-14T08:46:55;6.82;;;6.10;;
10957;SDS011;5531;42.570;23.676;2023-05-14T08:49:31;6.72;;;5.88;;
10957;SDS011;5531;42.570;23.676;2023-05-14T08:52:01;6.18;;;5.55;;
10957;SDS011;5531;42.570;23.676;2023-05-14T08:54:30;5.70;;;5.18;;
10957;SDS011;5531;42.570;23.676;2023-05-14T08:56:58;6.07;;;4.30;;
10957;SDS011;5531;42.570;23.676;2023-05-14T08:59:27;8.68;;;5.82;;
10957;SDS011;5531;42.570;23.676;2023-05-14T09:01:57;6.05;;;5.32;;
10957;SDS011;5531;42.570;23.676;2023-05-14T09:04:31;7.03;;;6.03;;
10957;SDS011;5531;42.570;23.676;2023-05-14T09:07:01;5.60;;;5.05;;
10957;SDS011;5531;42.570;23.676;2023-05-14T09:09:31;6.03;;;5.38;;
10957;SDS011;5531;42.570;23.676;2023-05-14T09:12:00;7.38;;;5.40;;
10957;SDS011;5531;42.570;23.676;2023-05-14T09:14:29;5.40;;;4.90;;
10957;SDS011;5531;42.570;23.676;2023-05-14T09:16:57;7.55;;;5.88;;
10957;SDS011;5531;42.570;23.676;2023-05-14T09:19:26;7.10;;;5.28;;
10957;SDS011;5531;42.570;23.676;2023-05-14T09:21:58;6.03;;;5.43;;
10957;SDS011;5531;42.570;23.676;2023-05-14T09:24:27;7.85;;;5.70;;
10957;SDS011;5531;42.570;23.676;2023-05-14T09:26:56;6.18;;;5.35;;
10957;SDS011;5531;42.570;23.676;2023-05-14T09:29:25;8.95;;;5.78;;
10957;SDS011;5531;42.570;23.676;2023-05-14T09:31:54;6.78;;;6.07;;
10957;SDS011;5531;42.570;23.676;2023-05-14T09:34:24;7.53;;;6.38;;
10957;SDS011;5531;42.570;23.676;2023-05-14T09:36:54;7.47;;;5.90;;
10957;SDS011;5531;42.570;23.676;2023-05-14T09:39:25;8.90;;;6.35;;
10957;SDS011;5531;42.570;23.676;2023-05-14T09:41:54;7.85;;;6.45;;
10957;SDS011;5531;42.570;23.676;2023-05-14T09:44:23;7.80;;;6.25;;
10957;SDS011;5531;42.570;23.676;2023-05-14T09:46:51;6.45;;;5.85;;
10957;SDS011;5531;42.570;23.676;2023-05-14T09:49:20;6.20;;;5.60;;
10957;SDS011;5531;42.570;23.676;2023-05-14T09:51:49;6.88;;;5.93;;
10957;SDS011;5531;42.570;23.676;2023-05-14T09:54:18;6.93;;;5.78;;
10957;SDS011;5531;42.570;23.676;2023-05-14T09:56:49;6.97;;;6.28;;
10957;SDS011;5531;42.570;23.676;2023-05-14T09:59:17;7.65;;;6.85;;
10957;SDS011;5531;42.570;23.676;2023-05-14T10:01:46;7.47;;;6.57;;
10957;SDS011;5531;42.570;23.676;2023-05-14T10:04:16;7.78;;;6.18;;
10957;SDS011;5531;42.570;23.676;2023-05-14T10:06:45;6.50;;;5.85;;
10957;SDS011;5531;42.570;23.676;2023-05-14T10:09:15;6.95;;;6.13;;
10957;SDS011;5531;42.570;23.676;2023-05-14T10:11:53;6.25;;;5.65;;
10957;SDS011;5531;42.570;23.676;2023-05-14T10:14:26;6.55;;;5.85;;
10957;SDS011;5531;42.570;23.676;2023-05-14T10:16:57;6.72;;;5.90;;
10957;SDS011;5531;42.570;23.676;2023-05-14T10:19:26;7.55;;;5.97;;
10957;SDS011;5531;42.570;23.676;2023-05-14T10:21:55;6.72;;;6.03;;
10957;SDS011;5531;42.570;23.676;2023-05-14T10:24:24;6.50;;;5.82;;
10957;SDS011;5531;42.570;23.676;2023-05-14T10:26:55;7.35;;;6.65;;
10957;SDS011;5531;42.570;23.676;2023-05-14T10:29:30;7.22;;;5.72;;
10957;SDS011;5531;42.570;23.676;2023-05-14T10:32:00;7.22;;;6.50;;
10957;SDS011;5531;42.570;23.676;2023-05-14T10:34:34;7.25;;;6.55;;
10957;SDS011;5531;42.570;23.676;2023-05-14T10:37:05;8.88;;;6.93;;
10957;SDS011;5531;42.570;23.676;2023-05-14T10:39:40;7.15;;;6.45;;
10957;SDS011;5531;42.570;23.676;2023-05-14T10:42:12;8.48;;;7.63;;
10957;SDS011;5531;42.570;23.676;2023-05-14T10:44:51;10.27;;;7.20;;
10957;SDS011;5531;42.570;23.676;2023-05-14T10:47:22;9.60;;;7.32;;
10957;SDS011;5531;42.570;23.676;2023-05-14T10:49:52;7.70;;;6.65;;
10957;SDS011;5531;42.570;23.676;2023-05-14T10:52:21;6.93;;;6.22;;
10957;SDS011;5531;42.570;23.676;2023-05-14T10:54:50;8.23;;;6.47;;
10957;SDS011;5531;42.570;23.676;2023-05-14T10:57:22;8.50;;;6.68;;
10957;SDS011;5531;42.570;23.676;2023-05-14T10:59:52;9.10;;;7.32;;
10957;SDS011;5531;42.570;23.676;2023-05-14T11:02:22;9.00;;;7.25;;
10957;SDS011;5531;42.570;23.676;2023-05-14T11:04:51;8.98;;;7.13;;
10957;SDS011;5531;42.570;23.676;2023-05-14T11:07:22;9.80;;;7.03;;
10957;SDS011;5531;42.570;23.676;2023-05-14T11:09:51;8.05;;;6.90;;
10957;SDS011;5531;42.570;23.676;2023-05-14T11:12:23;8.32;;;7.20;;
10957;SDS011;5531;42.570;23.676;2023-05-14T11:14:51;7.15;;;6.35;;
10957;SDS011;5531;42.570;23.676;2023-05-14T11:17:20;7.18;;;6.47;;
10957;SDS011;5531;42.570;23.676;2023-05-14T11:19:49;7.82;;;6.43;;
10957;SDS011;5531;42.570;23.676;2023-05-14T11:22:17;8.85;;;6.68;;
10957;SDS011;5531;42.570;23.676;2023-05-14T11:24:46;8.38;;;7.00;;
10957;SDS011;5531;42.570;23.676;2023-05-14T11:27:14;8.95;;;6.75;;
10957;SDS011;5531;42.570;23.676;2023-05-14T11:29:46;8.55;;;7.65;;
10957;SDS011;5531;42.570;23.676;2023-05-14T11:32:16;7.57;;;6.78;;
10957;SDS011;5531;42.570;23.676;2023-05-14T11:34:45;7.90;;;7.13;;
10957;SDS011;5531;42.570;23.676;2023-05-14T11:37:14;8.43;;;7.18;;
10957;SDS011;5531;42.570;23.676;2023-05-14T11:39:46;10.05;;;7.97;;
10957;SDS011;5531;42.570;23.676;2023-05-14T11:42:17;8.55;;;7.45;;
10957;SDS011;5531;42.570;23.676;2023-05-14T11:44:48;9.25;;;7.88;;
10957;SDS011;5531;42.570;23.676;2023-05-14T11:47:18;11.05;;;8.95;;
10957;SDS011;5531;42.570;23.676;2023-05-14T11:49:47;9.98;;;8.82;;
10957;SDS011;5531;42.570;23.676;2023-05-14T11:52:16;10.32;;;7.65;;
10957;SDS011;5531;42.570;23.676;2023-05-14T11:54:49;11.20;;;8.05;;
10957;SDS011;5531;42.570;23.676;2023-05-14T11:57:18;10.80;;;8.25;;
10957;SDS011;5531;42.570;23.676;2023-05-14T11:59:53;10.20;;;8.40;;
10957;SDS011;5531;42.570;23.676;2023-05-14T12:02:23;9.80;;;8.65;;
10957;SDS011;5531;42.570;23.676;2023-05-14T12:04:53;10.38;;;8.40;;
10957;SDS011;5531;42.570;23.676;2023-05-14T12:07:22;10.35;;;9.00;;
10957;SDS011;5531;42.570;23.676;2023-05-14T12:09:50;11.25;;;8.95;;
10957;SDS011;5531;42.570;23.676;2023-05-14T12:12:20;10.23;;;8.57;;
10957;SDS011;5531;42.570;23.676;2023-05-14T12:14:51;11.77;;;9.73;;
10957;SDS011;5531;42.570;23.676;2023-05-14T12:17:21;14.85;;;10.65;;
10957;SDS011;5531;42.570;23.676;2023-05-14T12:19:50;11.82;;;9.93;;
10957;SDS011;5531;42.570;23.676;2023-05-14T12:22:21;12.85;;;9.45;;
10957;SDS011;5531;42.570;23.676;2023-05-14T12:24:53;12.20;;;9.63;;
10957;SDS011;5531;42.570;23.676;2023-05-14T12:27:21;13.25;;;10.02;;
10957;SDS011;5531;42.570;23.676;2023-05-14T12:29:59;11.02;;;9.30;;
10957;SDS011;5531;42.570;23.676;2023-05-14T12:32:30;13.02;;;10.48;;
10957;SDS011;5531;42.570;23.676;2023-05-14T12:34:58;13.75;;;10.02;;
10957;SDS011;5531;42.570;23.676;2023-05-14T12:37:27;12.52;;;9.77;;
10957;SDS011;5531;42.570;23.676;2023-05-14T12:39:56;13.88;;;10.90;;
10957;SDS011;5531;42.570;23.676;2023-05-14T12:42:25;12.48;;;10.65;;
10957;SDS011;5531;42.570;23.676;2023-05-14T12:44:54;13.23;;;10.63;;
10957;SDS011;5531;42.570;23.676;2023-05-14T12:47:26;12.25;;;10.07;;
10957;SDS011;5531;42.570;23.676;2023-05-14T12:49:54;12.60;;;10.77;;
10957;SDS011;5531;42.570;23.676;2023-05-14T12:52:23;13.05;;;10.80;;
10957;SDS011;5531;42.570;23.676;2023-05-14T12:54:51;15.50;;;9.70;;
10957;SDS011;5531;42.570;23.676;2023-05-14T12:57:20;14.98;;;11.07;;
10957;SDS011;5531;42.570;23.676;2023-05-14T12:59:48;14.23;;;10.90;;
10957;SDS011;5531;42.570;23.676;2023-05-14T13:02:17;13.05;;;10.50;;
10957;SDS011;5531;42.570;23.676;2023-05-14T13:04:48;13.57;;;10.50;;
10957;SDS011;5531;42.570;23.676;2023-05-14T13:07:17;13.57;;;11.57;;
10957;SDS011;5531;42.570;23.676;2023-05-14T13:09:45;15.13;;;11.77;;
10957;SDS011;5531;42.570;23.676;2023-05-14T13:12:14;12.30;;;10.60;;
10957;SDS011;5531;42.570;23.676;2023-05-14T13:14:43;15.75;;;12.07;;
10957;SDS011;5531;42.570;23.676;2023-05-14T13:17:11;15.75;;;11.45;;
10957;SDS011;5531;42.570;23.676;2023-05-14T13:19:40;12.55;;;10.48;;
10957;SDS011;5531;42.570;23.676;2023-05-14T13:22:11;13.70;;;10.20;;
10957;SDS011;5531;42.570;23.676;2023-05-14T13:24:41;13.70;;;9.35;;
10957;SDS011;5531;42.570;23.676;2023-05-14T13:27:10;12.88;;;10.95;;
10957;SDS011;5531;42.570;23.676;2023-05-14T13:29:38;13.13;;;10.93;;
10957;SDS011;5531;42.570;23.676;2023-05-14T13:32:07;12.15;;;10.50;;
10957;SDS011;5531;42.570;23.676;2023-05-14T13:34:35;12.75;;;10.68;;
10957;SDS011;5531;42.570;23.676;2023-05-14T13:37:04;12.38;;;10.10;;
10957;SDS011;5531;42.570;23.676;2023-05-14T13:39:35;12.65;;;10.57;;
10957;SDS011;5531;42.570;23.676;2023-05-14T13:42:04;12.60;;;10.30;;
10957;SDS011;5531;42.570;23.676;2023-05-14T13:44:33;18.30;;;11.85;;
10957;SDS011;5531;42.570;23.676;2023-05-14T13:47:02;13.80;;;10.80;;
10957;SDS011;5531;42.570;23.676;2023-05-14T13:49:30;12.50;;;10.90;;
10957;SDS011;5531;42.570;23.676;2023-05-14T13:51:59;14.82;;;12.25;;
10957;SDS011;5531;42.570;23.676;2023-05-14T13:54:27;17.67;;;11.68;;
10957;SDS011;5531;42.570;23.676;2023-05-14T13:56:58;16.52;;;11.95;;
10957;SDS011;5531;42.570;23.676;2023-05-14T13:59:27;16.70;;;11.43;;
10957;SDS011;5531;42.570;23.676;2023-05-14T14:01:55;17.85;;;13.40;;
10957;SDS011;5531;42.570;23.676;2023-05-14T14:04:24;17.27;;;12.55;;
10957;SDS011;5531;42.570;23.676;2023-05-14T14:06:53;17.55;;;12.55;;
10957;SDS011;5531;42.570;23.676;2023-05-14T14:09:22;15.65;;;11.77;;
10957;SDS011;5531;42.570;23.676;2023-05-14T14:11:51;19.80;;;12.27;;
10957;SDS011;5531;42.570;23.676;2023-05-14T14:14:22;22.92;;;12.88;;
10957;SDS011;5531;42.570;23.676;2023-05-14T14:16:50;21.48;;;12.48;;
10957;SDS011;5531;42.570;23.676;2023-05-14T14:19:19;17.35;;;12.25;;
10957;SDS011;5531;42.570;23.676;2023-05-14T14:21:47;19.23;;;13.48;;
10957;SDS011;5531;42.570;23.676;2023-05-14T14:24:16;21.02;;;13.82;;
10957;SDS011;5531;42.570;23.676;2023-05-14T14:26:44;17.17;;;13.90;;
10957;SDS011;5531;42.570;23.676;2023-05-14T14:29:13;24.42;;;13.68;;
10957;SDS011;5531;42.570;23.676;2023-05-14T14:31:44;26.10;;;13.82;;
10957;SDS011;5531;42.570;23.676;2023-05-14T14:34:13;30.42;;;13.82;;
10957;SDS011;5531;42.570;23.676;2023-05-14T14:36:41;25.08;;;13.82;;
10957;SDS011;5531;42.570;23.676;2023-05-14T14:39:10;30.23;;;13.13;;
10957;SDS011;5531;42.570;23.676;2023-05-14T14:41:38;37.22;;;13.57;;
10957;SDS011;5531;42.570;23.676;2023-05-14T14:44:07;29.30;;;13.25;;
10957;SDS011;5531;42.570;23.676;2023-05-14T14:46:35;26.95;;;12.80;;
10957;SDS011;5531;42.570;23.676;2023-05-14T14:49:06;25.25;;;11.82;;
10957;SDS011;5531;42.570;23.676;2023-05-14T14:51:35;36.70;;;13.18;;
10957;SDS011;5531;42.570;23.676;2023-05-14T14:54:04;27.92;;;12.15;;
10957;SDS011;5531;42.570;23.676;2023-05-14T14:56:32;44.00;;;12.80;;